sensor_id;sensor_type;location;lat;lon;timestamp;P1;durP1;ratioP1;P2;durP2;ratioP2
57832;SDS011;43667;53.036;6.740;2022-12-05T00:01:38;34.55;;;23.92;;
57832;SDS011;43667;53.036;6.740;2022-12-05T00:04:08;33.50;;;22.63;;
57832;SDS011;43667;53.036;6.740;2022-12-05T00:06:36;33.95;;;23.00;;
57832;SDS011;43667;53.036;6.740;2022-12-05T00:09:03;34.42;;;22.90;;
57832;SDS011;43667;53.036;6.740;2022-12-05T00:11:31;36.03;;;22.98;;
57832;SDS011;43667;53.036;6.740;2022-12-05T00:13:59;32.22;;;21.40;;
57832;SDS011;43667;53.036;6.740;2022-12-05T00:16:26;29.65;;;20.83;;
57832;SDS011;43667;53.036;6.740;2022-12-05T00:18:54;31.35;;;21.60;;
57832;SDS011;43667;53.036;6.740;2022-12-05T00:21:21;31.65;;;21.95;;
57832;SDS011;43667;53.036;6.740;2022-12-05T00:23:48;32.70;;;22.00;;
57832;SDS011;43667;53.036;6.740;2022-12-05T00:26:15;32.13;;;22.13;;
57832;SDS011;43667;53.036;6.740;2022-12-05T00:28:40;31.25;;;21.77;;
57832;SDS011;43667;53.036;6.740;2022-12-05T00:31:08;33.15;;;22.05;;
57832;SDS011;43667;53.036;6.740;2022-12-05T00:33:35;34.00;;;23.00;;
57832;SDS011;43667;53.036;6.740;2022-12-05T00:36:02;32.47;;;22.70;;
57832;SDS011;43667;53.036;6.740;2022-12-05T00:38:29;36.60;;;23.17;;
57832;SDS011;43667;53.036;6.740;2022-12-05T00:40:55;32.55;;;24.10;;
57832;SDS011;43667;53.036;6.740;2022-12-05T00:43:25;36.30;;;23.92;;
57832;SDS011;43667;53.036;6.740;2022-12-05T00:45:51;34.78;;;23.70;;
57832;SDS011;43667;53.036;6.740;2022-12-05T00:48:16;34.80;;;23.38;;
57832;SDS011;43667;53.036;6.740;2022-12-05T00:50:42;35.42;;;24.20;;
57832;SDS011;43667;53.036;6.740;2022-12-05T00:53:08;34.58;;;23.95;;
57832;SDS011;43667;53.036;6.740;2022-12-05T00:55:35;35.35;;;24.60;;
57832;SDS011;43667;53.036;6.740;2022-12-05T00:58:01;36.42;;;24.75;;
57832;SDS011;43667;53.036;6.740;2022-12-05T01:00:27;42.30;;;26.67;;
57832;SDS011;43667;53.036;6.740;2022-12-05T01:02:52;39.63;;;26.25;;
57832;SDS011;43667;53.036;6.740;2022-12-05T01:05:19;40.35;;;26.85;;
57832;SDS011;43667;53.036;6.740;2022-12-05T01:07:44;41.92;;;26.17;;
57832;SDS011;43667;53.036;6.740;2022-12-05T01:10:10;44.15;;;27.02;;
57832;SDS011;43667;53.036;6.740;2022-12-05T01:12:35;41.72;;;27.70;;
57832;SDS011;43667;53.036;6.740;2022-12-05T01:15:01;42.67;;;27.80;;
57832;SDS011;43667;53.036;6.740;2022-12-05T01:17:27;39.35;;;27.42;;
57832;SDS011;43667;53.036;6.740;2022-12-05T01:19:53;42.88;;;28.63;;
57832;SDS011;43667;53.036;6.740;2022-12-05T01:22:18;45.50;;;29.15;;
57832;SDS011;43667;53.036;6.740;2022-12-05T01:24:44;50.67;;;30.05;;
57832;SDS011;43667;53.036;6.740;2022-12-05T01:27:09;47.63;;;30.60;;
57832;SDS011;43667;53.036;6.740;2022-12-05T01:29:35;47.90;;;31.13;;
57832;SDS011;43667;53.036;6.740;2022-12-05T01:32:00;44.45;;;29.15;;
57832;SDS011;43667;53.036;6.740;2022-12-05T01:34:27;45.90;;;30.20;;
57832;SDS011;43667;53.036;6.740;2022-12-05T01:36:53;45.65;;;30.00;;
57832;SDS011;43667;53.036;6.740;2022-12-05T01:39:19;45.03;;;29.50;;
57832;SDS011;43667;53.036;6.740;2022-12-05T01:41:45;48.08;;;30.98;;
57832;SDS011;43667;53.036;6.740;2022-12-05T01:46:43;47.30;;;29.92;;
57832;SDS011;43667;53.036;6.740;2022-12-05T01:49:12;51.43;;;31.37;;
57832;SDS011;43667;53.036;6.740;2022-12-05T01:51:45;48.15;;;30.90;;
57832;SDS011;43667;53.036;6.740;2022-12-05T01:54:14;48.08;;;29.77;;
57832;SDS011;43667;53.036;6.740;2022-12-05T01:56:41;49.92;;;31.63;;
57832;SDS011;43667;53.036;6.740;2022-12-05T01:59:10;49.03;;;31.02;;
57832;SDS011;43667;53.036;6.740;2022-12-05T02:01:37;49.30;;;31.40;;
57832;SDS011;43667;53.036;6.740;2022-12-05T02:04:03;54.20;;;32.00;;
57832;SDS011;43667;53.036;6.740;2022-12-05T02:06:29;46.60;;;30.58;;
57832;SDS011;43667;53.036;6.740;2022-12-05T02:08:56;50.97;;;31.80;;
57832;SDS011;43667;53.036;6.740;2022-12-05T02:11:22;51.35;;;33.60;;
57832;SDS011;43667;53.036;6.740;2022-12-05T02:25:28;51.28;;;30.20;;
57832;SDS011;43667;53.036;6.740;2022-12-05T02:30:53;54.28;;;30.70;;
57832;SDS011;43667;53.036;6.740;2022-12-05T02:36:02;55.58;;;31.23;;
57832;SDS011;43667;53.036;6.740;2022-12-05T02:38:42;50.00;;;30.60;;
57832;SDS011;43667;53.036;6.740;2022-12-05T02:43:58;51.40;;;30.60;;
57832;SDS011;43667;53.036;6.740;2022-12-05T02:46:29;53.30;;;30.85;;
57832;SDS011;43667;53.036;6.740;2022-12-05T02:48:57;49.20;;;30.02;;
57832;SDS011;43667;53.036;6.740;2022-12-05T02:51:28;52.95;;;31.42;;
57832;SDS011;43667;53.036;6.740;2022-12-05T02:53:58;53.33;;;30.45;;
57832;SDS011;43667;53.036;6.740;2022-12-05T02:56:26;54.05;;;32.10;;
57832;SDS011;43667;53.036;6.740;2022-12-05T02:58:56;55.47;;;31.50;;
57832;SDS011;43667;53.036;6.740;2022-12-05T03:01:25;56.10;;;32.75;;
57832;SDS011;43667;53.036;6.740;2022-12-05T03:03:54;63.78;;;34.08;;
57832;SDS011;43667;53.036;6.740;2022-12-05T03:06:22;53.97;;;30.88;;
57832;SDS011;43667;53.036;6.740;2022-12-05T03:11:49;48.55;;;27.33;;
57832;SDS011;43667;53.036;6.740;2022-12-05T03:14:19;40.00;;;26.42;;
57832;SDS011;43667;53.036;6.740;2022-12-05T03:16:50;37.60;;;25.00;;
57832;SDS011;43667;53.036;6.740;2022-12-05T03:19:36;41.85;;;24.95;;
57832;SDS011;43667;53.036;6.740;2022-12-05T03:22:32;39.85;;;24.95;;
57832;SDS011;43667;53.036;6.740;2022-12-05T03:30:22;34.22;;;22.67;;
57832;SDS011;43667;53.036;6.740;2022-12-05T03:32:56;34.72;;;22.10;;
57832;SDS011;43667;53.036;6.740;2022-12-05T03:35:36;29.95;;;21.17;;
57832;SDS011;43667;53.036;6.740;2022-12-05T03:43:43;32.25;;;21.08;;
57832;SDS011;43667;53.036;6.740;2022-12-05T03:46:23;27.70;;;18.52;;
57832;SDS011;43667;53.036;6.740;2022-12-05T03:49:04;26.27;;;19.38;;
57832;SDS011;43667;53.036;6.740;2022-12-05T03:51:42;27.58;;;21.25;;
57832;SDS011;43667;53.036;6.740;2022-12-05T03:54:17;30.92;;;20.13;;
57832;SDS011;43667;53.036;6.740;2022-12-05T03:57:21;27.30;;;20.42;;
57832;SDS011;43667;53.036;6.740;2022-12-05T03:59:54;26.67;;;19.23;;
57832;SDS011;43667;53.036;6.740;2022-12-05T04:05:27;22.38;;;18.17;;
57832;SDS011;43667;53.036;6.740;2022-12-05T04:08:03;25.98;;;18.58;;
57832;SDS011;43667;53.036;6.740;2022-12-05T04:10:35;24.52;;;17.35;;
57832;SDS011;43667;53.036;6.740;2022-12-05T04:13:12;23.33;;;17.15;;
57832;SDS011;43667;53.036;6.740;2022-12-05T04:15:55;20.67;;;14.88;;
57832;SDS011;43667;53.036;6.740;2022-12-05T04:18:48;23.02;;;16.15;;
57832;SDS011;43667;53.036;6.740;2022-12-05T04:21:22;19.02;;;14.88;;
57832;SDS011;43667;53.036;6.740;2022-12-05T04:24:14;18.70;;;14.18;;
57832;SDS011;43667;53.036;6.740;2022-12-05T04:27:05;18.42;;;13.80;;
57832;SDS011;43667;53.036;6.740;2022-12-05T04:30:09;20.25;;;14.77;;
57832;SDS011;43667;53.036;6.740;2022-12-05T04:32:47;18.55;;;13.63;;
57832;SDS011;43667;53.036;6.740;2022-12-05T04:38:26;19.23;;;13.60;;
57832;SDS011;43667;53.036;6.740;2022-12-05T04:41:00;19.27;;;13.02;;
57832;SDS011;43667;53.036;6.740;2022-12-05T04:43:29;19.80;;;13.57;;
57832;SDS011;43667;53.036;6.740;2022-12-05T04:46:00;20.13;;;13.57;;
57832;SDS011;43667;53.036;6.740;2022-12-05T04:48:29;16.80;;;12.55;;
57832;SDS011;43667;53.036;6.740;2022-12-05T04:50:57;18.92;;;13.68;;
57832;SDS011;43667;53.036;6.740;2022-12-05T04:53:23;15.60;;;12.50;;
57832;SDS011;43667;53.036;6.740;2022-12-05T04:55:53;17.10;;;13.07;;
57832;SDS011;43667;53.036;6.740;2022-12-05T04:58:22;17.33;;;12.00;;
57832;SDS011;43667;53.036;6.740;2022-12-05T05:03:17;14.63;;;11.35;;
57832;SDS011;43667;53.036;6.740;2022-12-05T05:08:17;11.98;;;9.85;;
57832;SDS011;43667;53.036;6.740;2022-12-05T05:11:05;16.08;;;11.50;;
57832;SDS011;43667;53.036;6.740;2022-12-05T05:13:40;13.18;;;10.25;;
57832;SDS011;43667;53.036;6.740;2022-12-05T05:16:06;12.73;;;10.48;;
57832;SDS011;43667;53.036;6.740;2022-12-05T05:18:32;13.98;;;10.65;;
57832;SDS011;43667;53.036;6.740;2022-12-05T05:20:58;10.85;;;9.30;;
57832;SDS011;43667;53.036;6.740;2022-12-05T05:23:24;13.35;;;9.45;;
57832;SDS011;43667;53.036;6.740;2022-12-05T05:25:53;13.65;;;10.68;;
57832;SDS011;43667;53.036;6.740;2022-12-05T05:28:20;11.65;;;9.60;;
57832;SDS011;43667;53.036;6.740;2022-12-05T05:30:46;12.48;;;10.05;;
57832;SDS011;43667;53.036;6.740;2022-12-05T05:33:12;13.02;;;9.90;;
57832;SDS011;43667;53.036;6.740;2022-12-05T05:35:38;14.13;;;10.15;;
57832;SDS011;43667;53.036;6.740;2022-12-05T05:38:04;12.20;;;10.07;;
57832;SDS011;43667;53.036;6.740;2022-12-05T05:40:30;11.73;;;9.20;;
57832;SDS011;43667;53.036;6.740;2022-12-05T05:42:58;15.05;;;10.93;;
57832;SDS011;43667;53.036;6.740;2022-12-05T05:45:24;13.82;;;10.65;;
57832;SDS011;43667;53.036;6.740;2022-12-05T05:47:49;15.20;;;10.32;;
57832;SDS011;43667;53.036;6.740;2022-12-05T05:50:15;13.88;;;9.63;;
57832;SDS011;43667;53.036;6.740;2022-12-05T05:52:41;13.60;;;10.88;;
57832;SDS011;43667;53.036;6.740;2022-12-05T05:55:07;14.07;;;10.63;;
57832;SDS011;43667;53.036;6.740;2022-12-05T05:57:33;13.23;;;10.45;;
57832;SDS011;43667;53.036;6.740;2022-12-05T06:00:00;13.60;;;9.90;;
57832;SDS011;43667;53.036;6.740;2022-12-05T06:02:32;14.82;;;10.90;;
57832;SDS011;43667;53.036;6.740;2022-12-05T06:04:58;15.32;;;10.60;;
57832;SDS011;43667;53.036;6.740;2022-12-05T06:07:23;16.15;;;11.20;;
57832;SDS011;43667;53.036;6.740;2022-12-05T06:09:49;14.20;;;11.30;;
57832;SDS011;43667;53.036;6.740;2022-12-05T06:12:15;14.65;;;11.23;;
57832;SDS011;43667;53.036;6.740;2022-12-05T06:14:41;18.67;;;11.77;;
57832;SDS011;43667;53.036;6.740;2022-12-05T06:17:06;16.17;;;11.23;;
57832;SDS011;43667;53.036;6.740;2022-12-05T06:19:32;16.85;;;12.30;;
57832;SDS011;43667;53.036;6.740;2022-12-05T06:21:57;16.77;;;11.93;;
57832;SDS011;43667;53.036;6.740;2022-12-05T06:24:23;14.48;;;11.45;;
57832;SDS011;43667;53.036;6.740;2022-12-05T06:26:48;19.13;;;11.63;;
57832;SDS011;43667;53.036;6.740;2022-12-05T06:29:14;14.55;;;11.70;;
57832;SDS011;43667;53.036;6.740;2022-12-05T06:31:40;15.10;;;11.38;;
57832;SDS011;43667;53.036;6.740;2022-12-05T06:34:06;15.90;;;11.38;;
57832;SDS011;43667;53.036;6.740;2022-12-05T06:36:31;14.57;;;11.38;;
57832;SDS011;43667;53.036;6.740;2022-12-05T06:38:57;13.05;;;10.85;;
57832;SDS011;43667;53.036;6.740;2022-12-05T06:41:23;14.75;;;10.90;;
57832;SDS011;43667;53.036;6.740;2022-12-05T06:43:53;15.40;;;11.82;;
57832;SDS011;43667;53.036;6.740;2022-12-05T06:46:23;15.20;;;11.18;;
57832;SDS011;43667;53.036;6.740;2022-12-05T06:48:53;17.88;;;11.50;;
57832;SDS011;43667;53.036;6.740;2022-12-05T06:51:20;14.60;;;10.85;;
57832;SDS011;43667;53.036;6.740;2022-12-05T06:53:46;17.30;;;12.07;;
57832;SDS011;43667;53.036;6.740;2022-12-05T06:56:13;16.27;;;11.30;;
57832;SDS011;43667;53.036;6.740;2022-12-05T06:58:45;16.20;;;10.45;;
57832;SDS011;43667;53.036;6.740;2022-12-05T07:01:14;16.67;;;11.90;;
57832;SDS011;43667;53.036;6.740;2022-12-05T07:04:08;16.42;;;11.25;;
57832;SDS011;43667;53.036;6.740;2022-12-05T07:06:40;15.05;;;11.10;;
57832;SDS011;43667;53.036;6.740;2022-12-05T07:09:06;15.65;;;11.13;;
57832;SDS011;43667;53.036;6.740;2022-12-05T07:11:32;15.93;;;11.30;;
57832;SDS011;43667;53.036;6.740;2022-12-05T07:13:58;18.40;;;12.32;;
57832;SDS011;43667;53.036;6.740;2022-12-05T07:16:23;18.17;;;11.20;;
57832;SDS011;43667;53.036;6.740;2022-12-05T07:18:49;17.48;;;11.77;;
57832;SDS011;43667;53.036;6.740;2022-12-05T07:21:15;19.98;;;11.60;;
57832;SDS011;43667;53.036;6.740;2022-12-05T07:23:41;16.85;;;11.65;;
57832;SDS011;43667;53.036;6.740;2022-12-05T07:26:10;16.85;;;12.00;;
57832;SDS011;43667;53.036;6.740;2022-12-05T07:28:37;19.63;;;12.57;;
57832;SDS011;43667;53.036;6.740;2022-12-05T07:31:03;26.45;;;13.25;;
57832;SDS011;43667;53.036;6.740;2022-12-05T07:33:33;19.63;;;12.70;;
57832;SDS011;43667;53.036;6.740;2022-12-05T07:36:03;21.15;;;12.23;;
57832;SDS011;43667;53.036;6.740;2022-12-05T07:38:31;23.17;;;12.25;;
57832;SDS011;43667;53.036;6.740;2022-12-05T07:40:57;23.23;;;14.20;;
57832;SDS011;43667;53.036;6.740;2022-12-05T07:43:22;19.55;;;12.73;;
57832;SDS011;43667;53.036;6.740;2022-12-05T07:45:48;17.35;;;11.43;;
57832;SDS011;43667;53.036;6.740;2022-12-05T07:48:14;22.67;;;12.48;;
57832;SDS011;43667;53.036;6.740;2022-12-05T07:50:40;23.35;;;13.35;;
57832;SDS011;43667;53.036;6.740;2022-12-05T07:53:06;21.48;;;12.52;;
57832;SDS011;43667;53.036;6.740;2022-12-05T07:55:31;21.67;;;12.32;;
57832;SDS011;43667;53.036;6.740;2022-12-05T07:57:57;23.13;;;13.85;;
57832;SDS011;43667;53.036;6.740;2022-12-05T08:00:22;23.00;;;13.75;;
57832;SDS011;43667;53.036;6.740;2022-12-05T08:02:48;21.60;;;13.00;;
57832;SDS011;43667;53.036;6.740;2022-12-05T08:05:13;21.02;;;13.23;;
57832;SDS011;43667;53.036;6.740;2022-12-05T08:07:39;23.25;;;12.68;;
57832;SDS011;43667;53.036;6.740;2022-12-05T08:10:06;19.50;;;12.82;;
57832;SDS011;43667;53.036;6.740;2022-12-05T08:12:32;22.77;;;12.75;;
57832;SDS011;43667;53.036;6.740;2022-12-05T08:14:57;18.85;;;12.80;;
57832;SDS011;43667;53.036;6.740;2022-12-05T08:17:23;22.63;;;12.35;;
57832;SDS011;43667;53.036;6.740;2022-12-05T08:19:48;19.10;;;12.25;;
57832;SDS011;43667;53.036;6.740;2022-12-05T08:22:14;19.52;;;11.80;;
57832;SDS011;43667;53.036;6.740;2022-12-05T08:24:40;20.13;;;11.15;;
57832;SDS011;43667;53.036;6.740;2022-12-05T08:27:05;24.58;;;12.00;;
57832;SDS011;43667;53.036;6.740;2022-12-05T08:29:31;19.33;;;11.77;;
57832;SDS011;43667;53.036;6.740;2022-12-05T08:31:57;19.08;;;11.65;;
57832;SDS011;43667;53.036;6.740;2022-12-05T08:34:22;20.40;;;10.73;;
57832;SDS011;43667;53.036;6.740;2022-12-05T08:36:48;18.63;;;11.48;;
57832;SDS011;43667;53.036;6.740;2022-12-05T08:39:15;16.15;;;9.90;;
57832;SDS011;43667;53.036;6.740;2022-12-05T08:41:42;14.25;;;9.63;;
57832;SDS011;43667;53.036;6.740;2022-12-05T08:44:09;14.43;;;9.45;;
57832;SDS011;43667;53.036;6.740;2022-12-05T08:46:40;34.80;;;15.60;;
57832;SDS011;43667;53.036;6.740;2022-12-05T08:49:06;17.08;;;11.30;;
57832;SDS011;43667;53.036;6.740;2022-12-05T08:51:32;18.92;;;11.13;;
57832;SDS011;43667;53.036;6.740;2022-12-05T08:53:58;14.23;;;9.48;;
57832;SDS011;43667;53.036;6.740;2022-12-05T08:56:26;17.45;;;10.40;;
57832;SDS011;43667;53.036;6.740;2022-12-05T08:58:52;12.68;;;9.55;;
57832;SDS011;43667;53.036;6.740;2022-12-05T09:01:18;16.20;;;9.85;;
57832;SDS011;43667;53.036;6.740;2022-12-05T09:03:45;19.08;;;10.35;;
57832;SDS011;43667;53.036;6.740;2022-12-05T09:06:12;11.65;;;8.98;;
57832;SDS011;43667;53.036;6.740;2022-12-05T09:08:43;16.23;;;9.88;;
57832;SDS011;43667;53.036;6.740;2022-12-05T09:11:13;13.27;;;8.57;;
57832;SDS011;43667;53.036;6.740;2022-12-05T09:13:41;12.07;;;8.60;;
57832;SDS011;43667;53.036;6.740;2022-12-05T09:16:08;13.20;;;9.38;;
57832;SDS011;43667;53.036;6.740;2022-12-05T09:18:35;13.50;;;9.27;;
57832;SDS011;43667;53.036;6.740;2022-12-05T09:21:07;13.50;;;9.02;;
57832;SDS011;43667;53.036;6.740;2022-12-05T09:23:38;17.45;;;9.52;;
57832;SDS011;43667;53.036;6.740;2022-12-05T09:26:04;14.07;;;9.88;;
57832;SDS011;43667;53.036;6.740;2022-12-05T09:28:32;14.77;;;9.60;;
57832;SDS011;43667;53.036;6.740;2022-12-05T09:30:59;14.70;;;9.80;;
57832;SDS011;43667;53.036;6.740;2022-12-05T09:33:30;13.57;;;9.75;;
57832;SDS011;43667;53.036;6.740;2022-12-05T09:35:57;14.40;;;10.20;;
57832;SDS011;43667;53.036;6.740;2022-12-05T09:38:22;16.92;;;9.95;;
57832;SDS011;43667;53.036;6.740;2022-12-05T09:43:45;12.77;;;9.68;;
57832;SDS011;43667;53.036;6.740;2022-12-05T09:46:42;14.55;;;9.98;;
57832;SDS011;43667;53.036;6.740;2022-12-05T09:49:26;15.82;;;10.13;;
57832;SDS011;43667;53.036;6.740;2022-12-05T09:51:54;18.23;;;11.15;;
57832;SDS011;43667;53.036;6.740;2022-12-05T09:54:21;15.63;;;9.50;;
57832;SDS011;43667;53.036;6.740;2022-12-05T09:56:49;15.43;;;9.57;;
57832;SDS011;43667;53.036;6.740;2022-12-05T09:59:17;14.55;;;9.13;;
57832;SDS011;43667;53.036;6.740;2022-12-05T10:10:27;19.23;;;11.10;;
57832;SDS011;43667;53.036;6.740;2022-12-05T10:13:52;16.23;;;11.13;;
57832;SDS011;43667;53.036;6.740;2022-12-05T10:16:12;16.58;;;10.23;;
57832;SDS011;43667;53.036;6.740;2022-12-05T10:18:54;17.00;;;11.60;;
57832;SDS011;43667;53.036;6.740;2022-12-05T10:21:28;18.08;;;11.50;;
57832;SDS011;43667;53.036;6.740;2022-12-05T10:24:05;19.33;;;12.63;;
57832;SDS011;43667;53.036;6.740;2022-12-05T10:26:44;16.13;;;10.88;;
57832;SDS011;43667;53.036;6.740;2022-12-05T10:31:50;13.43;;;9.95;;
57832;SDS011;43667;53.036;6.740;2022-12-05T10:34:30;18.00;;;10.02;;
57832;SDS011;43667;53.036;6.740;2022-12-05T10:37:09;13.50;;;9.35;;
57832;SDS011;43667;53.036;6.740;2022-12-05T10:39:40;15.35;;;9.48;;
57832;SDS011;43667;53.036;6.740;2022-12-05T10:42:09;12.52;;;8.70;;
57832;SDS011;43667;53.036;6.740;2022-12-05T10:44:37;14.50;;;9.00;;
57832;SDS011;43667;53.036;6.740;2022-12-05T10:47:03;18.92;;;9.70;;
57832;SDS011;43667;53.036;6.740;2022-12-05T10:49:30;10.75;;;7.82;;
57832;SDS011;43667;53.036;6.740;2022-12-05T10:51:57;15.52;;;9.43;;
57832;SDS011;43667;53.036;6.740;2022-12-05T10:54:24;14.77;;;8.35;;
57832;SDS011;43667;53.036;6.740;2022-12-05T10:56:53;12.50;;;8.05;;
57832;SDS011;43667;53.036;6.740;2022-12-05T10:59:23;14.48;;;7.88;;
57832;SDS011;43667;53.036;6.740;2022-12-05T11:02:11;13.48;;;8.02;;
57832;SDS011;43667;53.036;6.740;2022-12-05T11:05:03;9.95;;;7.90;;
57832;SDS011;43667;53.036;6.740;2022-12-05T11:07:50;11.77;;;7.65;;
57832;SDS011;43667;53.036;6.740;2022-12-05T11:10:23;13.43;;;8.45;;
57832;SDS011;43667;53.036;6.740;2022-12-05T11:13:02;11.63;;;8.70;;
57832;SDS011;43667;53.036;6.740;2022-12-05T11:15:43;15.00;;;10.27;;
57832;SDS011;43667;53.036;6.740;2022-12-05T11:18:17;16.83;;;9.48;;
57832;SDS011;43667;53.036;6.740;2022-12-05T11:20:56;12.73;;;9.13;;
57832;SDS011;43667;53.036;6.740;2022-12-05T11:23:33;15.52;;;9.80;;
57832;SDS011;43667;53.036;6.740;2022-12-05T11:25:58;14.00;;;9.50;;
57832;SDS011;43667;53.036;6.740;2022-12-05T11:28:31;14.10;;;8.65;;
57832;SDS011;43667;53.036;6.740;2022-12-05T11:33:30;14.25;;;9.00;;
57832;SDS011;43667;53.036;6.740;2022-12-05T11:36:00;14.90;;;10.00;;
57832;SDS011;43667;53.036;6.740;2022-12-05T11:41:02;22.65;;;11.27;;
57832;SDS011;43667;53.036;6.740;2022-12-05T11:43:51;17.08;;;10.52;;
57832;SDS011;43667;53.036;6.740;2022-12-05T11:54:50;16.60;;;10.95;;
57832;SDS011;43667;53.036;6.740;2022-12-05T12:00:02;21.02;;;10.93;;
57832;SDS011;43667;53.036;6.740;2022-12-05T12:02:54;13.75;;;9.38;;
57832;SDS011;43667;53.036;6.740;2022-12-05T12:05:40;15.00;;;10.23;;
57832;SDS011;43667;53.036;6.740;2022-12-05T12:11:53;16.80;;;10.07;;
57832;SDS011;43667;53.036;6.740;2022-12-05T12:14:04;13.13;;;8.57;;
57832;SDS011;43667;53.036;6.740;2022-12-05T12:19:34;15.10;;;8.57;;
57832;SDS011;43667;53.036;6.740;2022-12-05T12:22:11;15.55;;;10.40;;
57832;SDS011;43667;53.036;6.740;2022-12-05T12:25:09;16.92;;;10.05;;
57832;SDS011;43667;53.036;6.740;2022-12-05T12:30:53;15.48;;;9.20;;
57832;SDS011;43667;53.036;6.740;2022-12-05T12:33:29;15.32;;;9.68;;
57832;SDS011;43667;53.036;6.740;2022-12-05T12:50:17;16.10;;;9.07;;
57832;SDS011;43667;53.036;6.740;2022-12-05T12:53:03;15.77;;;9.38;;
57832;SDS011;43667;53.036;6.740;2022-12-05T12:58:46;14.05;;;9.13;;
57832;SDS011;43667;53.036;6.740;2022-12-05T13:04:32;15.98;;;8.90;;
57832;SDS011;43667;53.036;6.740;2022-12-05T13:07:07;13.07;;;8.07;;
57832;SDS011;43667;53.036;6.740;2022-12-05T13:09:56;14.18;;;8.85;;
57832;SDS011;43667;53.036;6.740;2022-12-05T13:12:27;16.00;;;8.68;;
57832;SDS011;43667;53.036;6.740;2022-12-05T13:14:58;14.70;;;8.45;;
57832;SDS011;43667;53.036;6.740;2022-12-05T13:17:26;13.65;;;7.93;;
57832;SDS011;43667;53.036;6.740;2022-12-05T13:19:56;15.10;;;8.88;;
57832;SDS011;43667;53.036;6.740;2022-12-05T13:22:22;13.27;;;8.57;;
57832;SDS011;43667;53.036;6.740;2022-12-05T13:24:50;15.20;;;9.80;;
57832;SDS011;43667;53.036;6.740;2022-12-05T13:27:17;13.40;;;8.27;;
57832;SDS011;43667;53.036;6.740;2022-12-05T13:29:52;13.50;;;8.27;;
57832;SDS011;43667;53.036;6.740;2022-12-05T13:32:33;11.43;;;6.90;;
57832;SDS011;43667;53.036;6.740;2022-12-05T13:35:07;12.80;;;7.47;;
57832;SDS011;43667;53.036;6.740;2022-12-05T13:37:44;12.43;;;7.88;;
57832;SDS011;43667;53.036;6.740;2022-12-05T13:40:31;15.07;;;8.35;;
57832;SDS011;43667;53.036;6.740;2022-12-05T13:43:22;13.00;;;7.55;;
57832;SDS011;43667;53.036;6.740;2022-12-05T13:48:25;12.30;;;7.53;;
57832;SDS011;43667;53.036;6.740;2022-12-05T13:51:07;14.32;;;7.90;;
57832;SDS011;43667;53.036;6.740;2022-12-05T13:53:40;13.63;;;7.80;;
57832;SDS011;43667;53.036;6.740;2022-12-05T13:58:41;12.73;;;7.57;;
57832;SDS011;43667;53.036;6.740;2022-12-05T14:03:58;11.52;;;7.28;;
57832;SDS011;43667;53.036;6.740;2022-12-05T14:19:59;13.57;;;7.35;;
57832;SDS011;43667;53.036;6.740;2022-12-05T14:22:46;12.20;;;7.35;;
57832;SDS011;43667;53.036;6.740;2022-12-05T14:25:32;13.93;;;7.15;;
57832;SDS011;43667;53.036;6.740;2022-12-05T14:30:59;14.63;;;7.40;;
57832;SDS011;43667;53.036;6.740;2022-12-05T14:34:02;13.70;;;6.85;;
57832;SDS011;43667;53.036;6.740;2022-12-05T14:37:02;15.27;;;8.05;;
57832;SDS011;43667;53.036;6.740;2022-12-05T14:39:48;13.00;;;7.45;;
57832;SDS011;43667;53.036;6.740;2022-12-05T14:42:21;13.47;;;7.13;;
57832;SDS011;43667;53.036;6.740;2022-12-05T14:44:47;12.30;;;6.85;;
57832;SDS011;43667;53.036;6.740;2022-12-05T14:47:25;15.30;;;7.60;;
57832;SDS011;43667;53.036;6.740;2022-12-05T14:50:20;14.18;;;7.68;;
57832;SDS011;43667;53.036;6.740;2022-12-05T14:56:13;14.27;;;7.03;;
57832;SDS011;43667;53.036;6.740;2022-12-05T14:59:04;15.27;;;7.95;;
57832;SDS011;43667;53.036;6.740;2022-12-05T15:01:42;19.55;;;8.93;;
57832;SDS011;43667;53.036;6.740;2022-12-05T15:04:15;19.00;;;9.30;;
57832;SDS011;43667;53.036;6.740;2022-12-05T15:09:29;14.38;;;8.25;;
57832;SDS011;43667;53.036;6.740;2022-12-05T15:12:01;18.23;;;8.63;;
57832;SDS011;43667;53.036;6.740;2022-12-05T15:14:30;14.05;;;8.70;;
57832;SDS011;43667;53.036;6.740;2022-12-05T15:17:04;18.10;;;8.65;;
57832;SDS011;43667;53.036;6.740;2022-12-05T15:19:43;16.58;;;7.72;;
57832;SDS011;43667;53.036;6.740;2022-12-05T15:22:15;16.15;;;8.13;;
57832;SDS011;43667;53.036;6.740;2022-12-05T15:24:43;15.88;;;8.43;;
57832;SDS011;43667;53.036;6.740;2022-12-05T15:27:09;18.05;;;8.55;;
57832;SDS011;43667;53.036;6.740;2022-12-05T15:29:36;12.18;;;7.53;;
57832;SDS011;43667;53.036;6.740;2022-12-05T15:42:29;18.08;;;9.20;;
57832;SDS011;43667;53.036;6.740;2022-12-05T15:47:37;16.27;;;9.63;;
57832;SDS011;43667;53.036;6.740;2022-12-05T15:50:04;17.17;;;9.60;;
57832;SDS011;43667;53.036;6.740;2022-12-05T15:52:32;17.05;;;8.75;;
57832;SDS011;43667;53.036;6.740;2022-12-05T15:55:11;12.73;;;7.78;;
57832;SDS011;43667;53.036;6.740;2022-12-05T15:57:47;15.30;;;9.10;;
57832;SDS011;43667;53.036;6.740;2022-12-05T16:00:18;12.55;;;8.50;;
57832;SDS011;43667;53.036;6.740;2022-12-05T16:05:45;14.98;;;8.10;;
57832;SDS011;43667;53.036;6.740;2022-12-05T16:08:05;15.13;;;9.50;;
57832;SDS011;43667;53.036;6.740;2022-12-05T16:10:32;13.60;;;8.50;;
57832;SDS011;43667;53.036;6.740;2022-12-05T16:13:05;14.40;;;9.35;;
57832;SDS011;43667;53.036;6.740;2022-12-05T16:15:36;19.50;;;9.60;;
57832;SDS011;43667;53.036;6.740;2022-12-05T16:18:05;14.38;;;8.77;;
57832;SDS011;43667;53.036;6.740;2022-12-05T16:20:46;13.93;;;8.90;;
57832;SDS011;43667;53.036;6.740;2022-12-05T16:23:25;14.00;;;8.48;;
57832;SDS011;43667;53.036;6.740;2022-12-05T16:28:37;14.35;;;8.52;;
57832;SDS011;43667;53.036;6.740;2022-12-05T16:31:03;12.85;;;8.50;;
57832;SDS011;43667;53.036;6.740;2022-12-05T16:33:29;13.70;;;8.90;;
57832;SDS011;43667;53.036;6.740;2022-12-05T16:36:05;13.00;;;8.73;;
57832;SDS011;43667;53.036;6.740;2022-12-05T16:38:35;13.77;;;8.57;;
57832;SDS011;43667;53.036;6.740;2022-12-05T16:41:02;13.75;;;9.00;;
57832;SDS011;43667;53.036;6.740;2022-12-05T16:46:42;12.00;;;8.38;;
57832;SDS011;43667;53.036;6.740;2022-12-05T16:48:45;12.27;;;8.10;;
57832;SDS011;43667;53.036;6.740;2022-12-05T16:51:38;10.13;;;7.28;;
57832;SDS011;43667;53.036;6.740;2022-12-05T16:54:06;15.38;;;8.40;;
57832;SDS011;43667;53.036;6.740;2022-12-05T16:56:32;14.38;;;8.40;;
57832;SDS011;43667;53.036;6.740;2022-12-05T16:59:01;12.90;;;8.20;;
57832;SDS011;43667;53.036;6.740;2022-12-05T17:01:29;13.13;;;8.73;;
57832;SDS011;43667;53.036;6.740;2022-12-05T17:03:55;14.88;;;8.43;;
57832;SDS011;43667;53.036;6.740;2022-12-05T17:06:22;14.23;;;8.50;;
57832;SDS011;43667;53.036;6.740;2022-12-05T17:08:49;13.93;;;9.18;;
57832;SDS011;43667;53.036;6.740;2022-12-05T17:11:17;14.60;;;8.57;;
57832;SDS011;43667;53.036;6.740;2022-12-05T17:13:44;14.25;;;8.60;;
57832;SDS011;43667;53.036;6.740;2022-12-05T17:16:12;20.02;;;10.82;;
57832;SDS011;43667;53.036;6.740;2022-12-05T17:18:38;14.13;;;9.27;;
57832;SDS011;43667;53.036;6.740;2022-12-05T17:21:04;15.45;;;10.05;;
57832;SDS011;43667;53.036;6.740;2022-12-05T17:23:30;16.38;;;10.63;;
57832;SDS011;43667;53.036;6.740;2022-12-05T17:25:56;13.30;;;8.98;;
57832;SDS011;43667;53.036;6.740;2022-12-05T17:28:23;16.77;;;9.73;;